createdAt,value
2023-02-07T00:02:36.960Z,268.50873
2023-02-07T00:17:39.286Z,197.56494
2023-02-07T00:32:41.598Z,98.78247
2023-02-07T00:47:43.968Z,29.63474
2023-02-07T01:02:46.288Z,5.38813
2023-02-07T01:17:48.552Z,0.89802
2023-02-07T01:32:50.777Z,0
2023-02-07T01:47:53.036Z,0
2023-02-07T02:02:55.584Z,0
2023-02-07T02:17:57.924Z,0
2023-02-07T02:33:00.206Z,0
2023-02-07T02:48:02.525Z,0
2023-02-07T03:03:04.888Z,0
2023-02-07T03:18:07.158Z,0
2023-02-07T03:33:09.423Z,0
2023-02-07T03:48:11.818Z,0
2023-02-07T04:03:14.098Z,0
2023-02-07T04:18:16.550Z,0
2023-02-07T04:33:18.864Z,0
2023-02-07T04:48:21.119Z,0
2023-02-07T05:03:23.389Z,0
2023-02-07T05:18:25.740Z,0
2023-02-07T05:33:28.066Z,0
2023-02-07T05:48:30.286Z,0
2023-02-07T06:03:32.784Z,0
2023-02-07T06:18:35.070Z,0
2023-02-07T06:33:37.396Z,0
2023-02-07T06:48:39.769Z,0
2023-02-07T07:03:41.909Z,0
2023-02-07T07:18:44.104Z,0
2023-02-07T07:33:46.365Z,0
2023-02-07T07:48:48.600Z,0
2023-02-07T08:03:51.028Z,0
2023-02-07T08:18:53.215Z,0
2023-02-07T08:33:55.556Z,0
2023-02-07T08:48:57.801Z,0
2023-02-07T09:03:59.983Z,0
2023-02-07T09:19:02.229Z,0
2023-02-07T09:34:04.465Z,0
2023-02-07T09:49:06.690Z,0
2023-02-07T10:04:08.918Z,0
2023-02-07T10:19:11.188Z,0
2023-02-07T10:34:13.430Z,0
2023-02-07T10:49:15.761Z,0
2023-02-07T11:04:18.057Z,0
2023-02-07T11:19:20.223Z,0
2023-02-07T11:34:22.869Z,0
2023-02-07T11:49:25.188Z,0
2023-02-07T12:04:27.447Z,0
2023-02-07T12:19:29.682Z,0
2023-02-07T12:34:31.968Z,0
2023-02-07T12:49:34.201Z,0
2023-02-07T13:04:36.429Z,0
2023-02-07T13:19:38.640Z,0
2023-02-07T13:34:40.835Z,0
2023-02-07T13:49:43.181Z,0
2023-02-07T14:04:45.450Z,0
2023-02-07T14:19:47.712Z,0
2023-02-07T14:34:50.024Z,0
2023-02-07T14:49:52.379Z,0
2023-02-07T15:04:54.620Z,3.59209
2023-02-07T15:19:56.888Z,12.57231
2023-02-07T15:34:59.120Z,35.9209
2023-02-07T15:50:01.373Z,99.6805
2023-02-07T16:05:03.668Z,294.55136
2023-02-07T16:20:06.334Z,482.23807
2023-02-07T16:35:08.553Z,524.44513
2023-02-07T16:50:10.924Z,657.35248
2023-02-07T17:05:13.175Z,731.88831
2023-02-07T17:20:15.354Z,948.31171
2023-02-07T17:35:17.558Z,1265.31372
2023-02-07T17:50:19.855Z,1469.16479
2023-02-07T18:05:22.420Z,1423.3656
2023-02-07T18:20:24.629Z,1629.01282
2023-02-07T18:35:26.896Z,1658.64746
2023-02-07T18:50:29.466Z,1459.2865
2023-02-07T19:05:31.886Z,1514.06592
2023-02-07T19:20:34.204Z,1844.53821
2023-02-07T19:35:36.601Z,1926.25818
2023-02-07T19:50:39.144Z,1744.85767
2023-02-07T20:05:41.540Z,1735.87744
2023-02-07T20:20:43.833Z,1748.44971
2023-02-07T20:35:46.054Z,1622.72656
2023-02-07T20:50:48.533Z,1514.96387
2023-02-07T21:05:50.902Z,1392.83289
2023-02-07T21:20:53.113Z,1078.52502
2023-02-07T21:35:55.369Z,1469.16479
2023-02-07T21:50:57.643Z,1001.29504
2023-02-07T22:05:59.858Z,1125.22217
2023-02-07T22:21:02.059Z,836.0589
2023-02-07T22:36:04.345Z,689.68127
2023-02-07T22:51:06.559Z,683.39508
2023-02-07T23:06:08.817Z,401.41605
2023-02-07T23:21:10.996Z,353.82086
2023-02-07T23:36:13.324Z,402.31406
2023-02-07T23:51:15.560Z,276.59091
